sensor_id;sensor_type;location;lat;lon;timestamp;pressure;altitude;pressure_sealevel;temperature;humidity
51369;BME280;37459;51.416;5.502;2022-11-15T00:02:06;100315.47;;;6.20;100.00
51369;BME280;37459;51.416;5.502;2022-11-15T00:04:34;100306.66;;;6.26;100.00
51369;BME280;37459;51.416;5.502;2022-11-15T00:07:01;100304.59;;;6.28;100.00
51369;BME280;37459;51.416;5.502;2022-11-15T00:09:27;100310.22;;;6.33;100.00
51369;BME280;37459;51.416;5.502;2022-11-15T00:11:54;100308.56;;;6.32;100.00
51369;BME280;37459;51.416;5.502;2022-11-15T00:14:20;100314.72;;;6.33;100.00
51369;BME280;37459;51.416;5.502;2022-11-15T00:16:47;100304.47;;;6.36;100.00
51369;BME280;37459;51.416;5.502;2022-11-15T00:19:13;100302.44;;;6.38;100.00
51369;BME280;37459;51.416;5.502;2022-11-15T00:21:41;100310.69;;;6.44;100.00
51369;BME280;37459;51.416;5.502;2022-11-15T00:24:08;100299.16;;;6.43;100.00
51369;BME280;37459;51.416;5.502;2022-11-15T00:26:34;100302.28;;;6.47;100.00
51369;BME280;37459;51.416;5.502;2022-11-15T00:29:01;100295.88;;;6.48;100.00
51369;BME280;37459;51.416;5.502;2022-11-15T00:31:27;100291.94;;;6.44;100.00
51369;BME280;37459;51.416;5.502;2022-11-15T00:33:54;100293.22;;;6.48;100.00
51369;BME280;37459;51.416;5.502;2022-11-15T00:36:20;100300.69;;;6.59;100.00
51369;BME280;37459;51.416;5.502;2022-11-15T00:38:48;100295.34;;;6.59;100.00
51369;BME280;37459;51.416;5.502;2022-11-15T00:41:15;100301.13;;;6.63;100.00
51369;BME280;37459;51.416;5.502;2022-11-15T00:43:41;100300.53;;;6.67;100.00
51369;BME280;37459;51.416;5.502;2022-11-15T00:46:08;100294.56;;;6.72;100.00
51369;BME280;37459;51.416;5.502;2022-11-15T00:48:35;100289.03;;;6.73;100.00
51369;BME280;37459;51.416;5.502;2022-11-15T00:51:01;100292.34;;;6.75;100.00
51369;BME280;37459;51.416;5.502;2022-11-15T00:53:28;100291.09;;;6.78;100.00
51369;BME280;37459;51.416;5.502;2022-11-15T00:55:56;100291.53;;;6.75;100.00
51369;BME280;37459;51.416;5.502;2022-11-15T00:58:22;100285.13;;;6.76;100.00
51369;BME280;37459;51.416;5.502;2022-11-15T01:00:49;100286.56;;;6.78;100.00
51369;BME280;37459;51.416;5.502;2022-11-15T01:03:15;100282.06;;;6.79;100.00
51369;BME280;37459;51.416;5.502;2022-11-15T01:05:42;100288.44;;;6.78;100.00
51369;BME280;37459;51.416;5.502;2022-11-15T01:08:12;100229.75;;;6.48;100.00
51369;BME280;37459;51.416;5.502;2022-11-15T01:10:38;100282.72;;;6.88;100.00
51369;BME280;37459;51.416;5.502;2022-11-15T01:13:06;100281.31;;;6.92;100.00
51369;BME280;37459;51.416;5.502;2022-11-15T01:15:33;100274.28;;;6.91;100.00
51369;BME280;37459;51.416;5.502;2022-11-15T01:17:59;100274.28;;;6.91;100.00
51369;BME280;37459;51.416;5.502;2022-11-15T01:20:26;100264.63;;;6.96;100.00
51369;BME280;37459;51.416;5.502;2022-11-15T01:22:52;100265.63;;;6.95;100.00
51369;BME280;37459;51.416;5.502;2022-11-15T01:25:19;100268.50;;;6.94;100.00
51369;BME280;37459;51.416;5.502;2022-11-15T01:27:45;100271.81;;;6.96;100.00
51369;BME280;37459;51.416;5.502;2022-11-15T01:30:13;100264.00;;;7.01;100.00
51369;BME280;37459;51.416;5.502;2022-11-15T01:32:40;100270.38;;;7.00;100.00
51369;BME280;37459;51.416;5.502;2022-11-15T01:35:07;100265.66;;;7.02;100.00
51369;BME280;37459;51.416;5.502;2022-11-15T01:37:34;100255.56;;;7.04;100.00
51369;BME280;37459;51.416;5.502;2022-11-15T01:40:00;100260.31;;;7.09;100.00
51369;BME280;37459;51.416;5.502;2022-11-15T01:42:27;100257.84;;;7.07;100.00
51369;BME280;37459;51.416;5.502;2022-11-15T01:44:53;100252.06;;;7.10;100.00
51369;BME280;37459;51.416;5.502;2022-11-15T01:47:24;100259.50;;;7.08;100.00
51369;BME280;37459;51.416;5.502;2022-11-15T01:49:55;100257.84;;;7.07;100.00
51369;BME280;37459;51.416;5.502;2022-11-15T01:52:25;100249.41;;;7.10;100.00
51369;BME280;37459;51.416;5.502;2022-11-15T01:54:56;100244.06;;;7.17;100.00
51369;BME280;37459;51.416;5.502;2022-11-15T01:57:24;100236.19;;;7.09;100.00
51369;BME280;37459;51.416;5.502;2022-11-15T01:59:51;100238.50;;;7.18;100.00
51369;BME280;37459;51.416;5.502;2022-11-15T02:02:17;100242.19;;;7.17;100.00
51369;BME280;37459;51.416;5.502;2022-11-15T02:04:46;100247.16;;;7.20;100.00
51369;BME280;37459;51.416;5.502;2022-11-15T02:07:15;100253.34;;;7.21;100.00
51369;BME280;37459;51.416;5.502;2022-11-15T02:09:43;100245.72;;;7.25;100.00
51369;BME280;37459;51.416;5.502;2022-11-15T02:12:10;100242.63;;;7.28;100.00
51369;BME280;37459;51.416;5.502;2022-11-15T02:14:40;100230.47;;;7.32;100.00
51369;BME280;37459;51.416;5.502;2022-11-15T02:17:17;100238.75;;;7.50;100.00
51369;BME280;37459;51.416;5.502;2022-11-15T02:23:04;100239.16;;;7.60;100.00
51369;BME280;37459;51.416;5.502;2022-11-15T02:25:40;100237.72;;;7.65;100.00
51369;BME280;37459;51.416;5.502;2022-11-15T02:28:31;100244.34;;;7.69;100.00
51369;BME280;37459;51.416;5.502;2022-11-15T02:31:04;100239.78;;;7.76;100.00
51369;BME280;37459;51.416;5.502;2022-11-15T02:33:42;100233.84;;;7.87;100.00
51369;BME280;37459;51.416;5.502;2022-11-15T02:36:16;100226.38;;;7.89;100.00
51369;BME280;37459;51.416;5.502;2022-11-15T02:38:52;100227.22;;;7.90;100.00
51369;BME280;37459;51.416;5.502;2022-11-15T02:41:25;100228.22;;;7.95;100.00
51369;BME280;37459;51.416;5.502;2022-11-15T02:44:01;100237.72;;;7.98;100.00
51369;BME280;37459;51.416;5.502;2022-11-15T02:46:33;100219.56;;;8.00;100.00
51369;BME280;37459;51.416;5.502;2022-11-15T02:49:19;100213.16;;;8.01;100.00
51369;BME280;37459;51.416;5.502;2022-11-15T02:51:47;100207.19;;;7.99;100.00
51369;BME280;37459;51.416;5.502;2022-11-15T02:54:18;100219.75;;;8.12;100.00
51369;BME280;37459;51.416;5.502;2022-11-15T02:56:46;100213.34;;;8.13;100.00
51369;BME280;37459;51.416;5.502;2022-11-15T02:59:23;100207.97;;;8.13;100.00
51369;BME280;37459;51.416;5.502;2022-11-15T03:02:07;100203.66;;;8.12;100.00
51369;BME280;37459;51.416;5.502;2022-11-15T03:04:41;100202.41;;;8.14;100.00
51369;BME280;37459;51.416;5.502;2022-11-15T03:07:13;100197.22;;;8.13;100.00
51369;BME280;37459;51.416;5.502;2022-11-15T03:09:47;100171.22;;;8.07;100.00
51369;BME280;37459;51.416;5.502;2022-11-15T03:12:21;100189.78;;;8.21;100.00
51369;BME280;37459;51.416;5.502;2022-11-15T03:14:54;100191.44;;;8.22;100.00
51369;BME280;37459;51.416;5.502;2022-11-15T03:17:26;100182.53;;;8.29;100.00
51369;BME280;37459;51.416;5.502;2022-11-15T03:19:56;100190.59;;;8.29;100.00
51369;BME280;37459;51.416;5.502;2022-11-15T03:22:26;100198.44;;;8.30;100.00
51369;BME280;37459;51.416;5.502;2022-11-15T03:24:57;100175.72;;;8.19;100.00
51369;BME280;37459;51.416;5.502;2022-11-15T03:27:28;100197.78;;;8.35;100.00
51369;BME280;37459;51.416;5.502;2022-11-15T03:30:00;100197.59;;;8.36;100.00
51369;BME280;37459;51.416;5.502;2022-11-15T03:32:32;100202.56;;;8.39;100.00
51369;BME280;37459;51.416;5.502;2022-11-15T03:35:05;100205.03;;;8.41;100.00
51369;BME280;37459;51.416;5.502;2022-11-15T03:37:36;100200.69;;;8.40;100.00
51369;BME280;37459;51.416;5.502;2022-11-15T03:40:04;100203.38;;;8.40;100.00
51369;BME280;37459;51.416;5.502;2022-11-15T03:42:36;100196.16;;;8.40;100.00
51369;BME280;37459;51.416;5.502;2022-11-15T03:45:10;100200.69;;;8.40;100.00
51369;BME280;37459;51.416;5.502;2022-11-15T03:47:43;100202.56;;;8.39;100.00
51369;BME280;37459;51.416;5.502;2022-11-15T03:50:13;100199.88;;;8.39;100.00
51369;BME280;37459;51.416;5.502;2022-11-15T03:52:41;100202.16;;;8.42;100.00
51369;BME280;37459;51.416;5.502;2022-11-15T03:55:11;100203.19;;;8.41;100.00
51369;BME280;37459;51.416;5.502;2022-11-15T03:57:39;100193.03;;;8.43;100.00
51369;BME280;37459;51.416;5.502;2022-11-15T04:00:07;100189.34;;;8.45;100.00
51369;BME280;37459;51.416;5.502;2022-11-15T04:02:34;100196.78;;;8.42;100.00
51369;BME280;37459;51.416;5.502;2022-11-15T04:05:02;100192.84;;;8.45;100.00
51369;BME280;37459;51.416;5.502;2022-11-15T04:07:29;100193.44;;;8.47;100.00
51369;BME280;37459;51.416;5.502;2022-11-15T04:09:55;100188.53;;;8.44;100.00
51369;BME280;37459;51.416;5.502;2022-11-15T04:12:32;100179.41;;;8.38;100.00
51369;BME280;37459;51.416;5.502;2022-11-15T04:15:00;100189.34;;;8.45;100.00
51369;BME280;37459;51.416;5.502;2022-11-15T04:17:33;100186.84;;;8.43;100.00
51369;BME280;37459;51.416;5.502;2022-11-15T04:20:02;100189.34;;;8.45;100.00
51369;BME280;37459;51.416;5.502;2022-11-15T04:22:46;100190.34;;;8.43;100.00
51369;BME280;37459;51.416;5.502;2022-11-15T04:25:30;100186.66;;;8.45;100.00
51369;BME280;37459;51.416;5.502;2022-11-15T04:27:56;100178.59;;;8.45;100.00
51369;BME280;37459;51.416;5.502;2022-11-15T04:30:23;100180.63;;;8.49;100.00
51369;BME280;37459;51.416;5.502;2022-11-15T04:32:49;100184.38;;;8.48;100.00
51369;BME280;37459;51.416;5.502;2022-11-15T04:35:17;100190.56;;;8.49;100.00
51369;BME280;37459;51.416;5.502;2022-11-15T04:37:44;100193.88;;;8.51;100.00
51369;BME280;37459;51.416;5.502;2022-11-15T04:40:10;100190.97;;;8.52;100.00
51369;BME280;37459;51.416;5.502;2022-11-15T04:42:37;100197.16;;;8.53;100.00
51369;BME280;37459;51.416;5.502;2022-11-15T04:45:04;100195.72;;;8.57;100.00
51369;BME280;37459;51.416;5.502;2022-11-15T04:47:30;100202.09;;;8.56;100.00
51369;BME280;37459;51.416;5.502;2022-11-15T04:49:57;100193.84;;;8.57;100.00
51369;BME280;37459;51.416;5.502;2022-11-15T04:52:24;100193.03;;;8.57;100.00
51369;BME280;37459;51.416;5.502;2022-11-15T04:54:51;100194.66;;;8.58;100.00
51369;BME280;37459;51.416;5.502;2022-11-15T04:57:18;100188.47;;;8.57;100.00
51369;BME280;37459;51.416;5.502;2022-11-15T04:59:44;100191.97;;;8.58;100.00
51369;BME280;37459;51.416;5.502;2022-11-15T05:02:11;100188.25;;;8.59;100.00
51369;BME280;37459;51.416;5.502;2022-11-15T05:04:39;100183.09;;;8.57;100.00
51369;BME280;37459;51.416;5.502;2022-11-15T05:07:04;100180.19;;;8.59;100.00
51369;BME280;37459;51.416;5.502;2022-11-15T05:09:32;100177.50;;;8.59;100.00
51369;BME280;37459;51.416;5.502;2022-11-15T05:11:58;100184.53;;;8.60;100.00
51369;BME280;37459;51.416;5.502;2022-11-15T05:14:25;100191.13;;;8.64;100.00
51369;BME280;37459;51.416;5.502;2022-11-15T05:16:51;100186.56;;;8.64;100.00
51369;BME280;37459;51.416;5.502;2022-11-15T05:19:18;100185.53;;;8.66;100.00
51369;BME280;37459;51.416;5.502;2022-11-15T05:21:44;100182.84;;;8.66;100.00
51369;BME280;37459;51.416;5.502;2022-11-15T05:24:11;100173.53;;;8.68;100.00
51369;BME280;37459;51.416;5.502;2022-11-15T05:26:40;100171.88;;;8.67;100.00
51369;BME280;37459;51.416;5.502;2022-11-15T05:29:08;100169.19;;;8.67;100.00
51369;BME280;37459;51.416;5.502;2022-11-15T05:31:39;100174.34;;;8.69;100.00
51369;BME280;37459;51.416;5.502;2022-11-15T05:34:06;100169.19;;;8.67;100.00
51369;BME280;37459;51.416;5.502;2022-11-15T05:36:36;100172.94;;;8.66;100.00
51369;BME280;37459;51.416;5.502;2022-11-15T05:39:03;100169.19;;;8.67;100.00
51369;BME280;37459;51.416;5.502;2022-11-15T05:41:33;100167.56;;;8.66;100.00
51369;BME280;37459;51.416;5.502;2022-11-15T05:44:03;100175.63;;;8.66;100.00
51369;BME280;37459;51.416;5.502;2022-11-15T05:46:33;100170.25;;;8.66;100.00
51369;BME280;37459;51.416;5.502;2022-11-15T05:49:00;100174.78;;;8.66;100.00
51369;BME280;37459;51.416;5.502;2022-11-15T05:51:27;100185.91;;;8.69;100.00
51369;BME280;37459;51.416;5.502;2022-11-15T05:53:56;100185.72;;;8.71;100.00
51369;BME280;37459;51.416;5.502;2022-11-15T05:56:24;100184.47;;;8.73;100.00
51369;BME280;37459;51.416;5.502;2022-11-15T05:58:52;100182.78;;;8.79;100.00
51369;BME280;37459;51.416;5.502;2022-11-15T06:01:21;100169.75;;;8.76;100.00
51369;BME280;37459;51.416;5.502;2022-11-15T06:03:48;100193.72;;;8.84;100.00
51369;BME280;37459;51.416;5.502;2022-11-15T06:06:14;100198.63;;;8.94;100.00
51369;BME280;37459;51.416;5.502;2022-11-15T06:08:41;100186.66;;;8.90;100.00
51369;BME280;37459;51.416;5.502;2022-11-15T06:11:07;100195.31;;;8.98;100.00
51369;BME280;37459;51.416;5.502;2022-11-15T06:13:34;100204.19;;;8.99;100.00
51369;BME280;37459;51.416;5.502;2022-11-15T06:16:01;100194.47;;;8.98;100.00
51369;BME280;37459;51.416;5.502;2022-11-15T06:18:31;100188.91;;;8.93;100.00
51369;BME280;37459;51.416;5.502;2022-11-15T06:20:58;100198.81;;;8.99;100.00
51369;BME280;37459;51.416;5.502;2022-11-15T06:23:25;100192.16;;;9.01;100.00
51369;BME280;37459;51.416;5.502;2022-11-15T06:25:51;100186.63;;;8.96;100.00
51369;BME280;37459;51.416;5.502;2022-11-15T06:28:18;100203.75;;;9.02;100.00
51369;BME280;37459;51.416;5.502;2022-11-15T06:30:44;100198.75;;;9.05;100.00
51369;BME280;37459;51.416;5.502;2022-11-15T06:33:11;100202.72;;;9.03;100.00
51369;BME280;37459;51.416;5.502;2022-11-15T06:35:39;100208.09;;;9.03;100.00
51369;BME280;37459;51.416;5.502;2022-11-15T06:38:08;100210.78;;;9.03;100.00
51369;BME280;37459;51.416;5.502;2022-11-15T06:40:36;100187.03;;;8.93;100.00
51369;BME280;37459;51.416;5.502;2022-11-15T06:43:03;100203.13;;;9.00;100.00
51369;BME280;37459;51.416;5.502;2022-11-15T06:45:30;100213.88;;;9.00;100.00
51369;BME280;37459;51.416;5.502;2022-11-15T06:47:57;100215.16;;;8.97;100.00
51369;BME280;37459;51.416;5.502;2022-11-15T06:50:23;100217.84;;;8.97;100.00
51369;BME280;37459;51.416;5.502;2022-11-15T06:52:51;100204.06;;;8.87;100.00
51369;BME280;37459;51.416;5.502;2022-11-15T06:55:19;100204.25;;;8.86;100.00
51369;BME280;37459;51.416;5.502;2022-11-15T06:57:47;100213.13;;;8.86;100.00
51369;BME280;37459;51.416;5.502;2022-11-15T07:00:15;100219.34;;;8.87;100.00
51369;BME280;37459;51.416;5.502;2022-11-15T07:02:42;100225.16;;;8.83;100.00
51369;BME280;37459;51.416;5.502;2022-11-15T07:05:08;100223.88;;;8.86;100.00
51369;BME280;37459;51.416;5.502;2022-11-15T07:07:35;100229.88;;;8.88;100.00
51369;BME280;37459;51.416;5.502;2022-11-15T07:10:03;100223.47;;;8.82;100.00
51369;BME280;37459;51.416;5.502;2022-11-15T07:12:30;100235.47;;;8.87;100.00
51369;BME280;37459;51.416;5.502;2022-11-15T07:14:57;100239.59;;;8.89;100.00
51369;BME280;37459;51.416;5.502;2022-11-15T07:17:23;100246.63;;;8.90;100.00
51369;BME280;37459;51.416;5.502;2022-11-15T07:19:50;100245.81;;;8.90;100.00
51369;BME280;37459;51.416;5.502;2022-11-15T07:22:16;100241.69;;;8.87;100.00
51369;BME280;37459;51.416;5.502;2022-11-15T07:24:43;100206.59;;;8.69;100.00
51369;BME280;37459;51.416;5.502;2022-11-15T07:27:11;100242.50;;;8.88;100.00
51369;BME280;37459;51.416;5.502;2022-11-15T07:29:37;100244.13;;;8.89;100.00
51369;BME280;37459;51.416;5.502;2022-11-15T07:32:04;100244.13;;;8.89;100.00
51369;BME280;37459;51.416;5.502;2022-11-15T07:34:30;100244.56;;;8.86;100.00
51369;BME280;37459;51.416;5.502;2022-11-15T07:36:57;100244.38;;;8.87;100.00
51369;BME280;37459;51.416;5.502;2022-11-15T07:39:23;100249.50;;;8.89;100.00
51369;BME280;37459;51.416;5.502;2022-11-15T07:41:50;100244.56;;;8.86;100.00
51369;BME280;37459;51.416;5.502;2022-11-15T07:44:38;100238.59;;;8.83;100.00
51369;BME280;37459;51.416;5.502;2022-11-15T07:47:05;100234.03;;;8.84;100.00
51369;BME280;37459;51.416;5.502;2022-11-15T07:49:31;100233.41;;;8.82;100.00
51369;BME280;37459;51.416;5.502;2022-11-15T07:51:58;100228.03;;;8.82;100.00
51369;BME280;37459;51.416;5.502;2022-11-15T07:54:24;100228.47;;;8.79;100.00
51369;BME280;37459;51.416;5.502;2022-11-15T07:56:51;100226.41;;;8.81;100.00
51369;BME280;37459;51.416;5.502;2022-11-15T07:59:17;100228.28;;;8.80;100.00
51369;BME280;37459;51.416;5.502;2022-11-15T08:01:45;100225.59;;;8.74;100.00
51369;BME280;37459;51.416;5.502;2022-11-15T08:04:12;100244.19;;;8.75;100.00
51369;BME280;37459;51.416;5.502;2022-11-15T08:06:39;100240.72;;;8.68;100.00
51369;BME280;37459;51.416;5.502;2022-11-15T08:09:05;100240.91;;;8.67;100.00
51369;BME280;37459;51.416;5.502;2022-11-15T08:11:32;100251.22;;;8.76;100.00
51369;BME280;37459;51.416;5.502;2022-11-15T08:13:59;100254.75;;;8.70;100.00
51369;BME280;37459;51.416;5.502;2022-11-15T08:16:25;100259.09;;;8.71;100.00
51369;BME280;37459;51.416;5.502;2022-11-15T08:18:53;100261.97;;;8.76;100.00
51369;BME280;37459;51.416;5.502;2022-11-15T08:21:20;100225.66;;;8.54;100.00
51369;BME280;37459;51.416;5.502;2022-11-15T08:23:47;100252.25;;;8.75;100.00
51369;BME280;37459;51.416;5.502;2022-11-15T08:26:14;100251.41;;;8.81;100.00
51369;BME280;37459;51.416;5.502;2022-11-15T08:28:41;100250.34;;;8.82;100.00
51369;BME280;37459;51.416;5.502;2022-11-15T08:31:13;100240.47;;;8.76;100.00
51369;BME280;37459;51.416;5.502;2022-11-15T08:33:40;100231.19;;;8.72;100.00
51369;BME280;37459;51.416;5.502;2022-11-15T08:36:12;100233.03;;;8.72;100.00
51369;BME280;37459;51.416;5.502;2022-11-15T08:38:39;100223.53;;;8.69;100.00
51369;BME280;37459;51.416;5.502;2022-11-15T08:41:05;100219.84;;;8.70;100.00
51369;BME280;37459;51.416;5.502;2022-11-15T08:43:32;100222.28;;;8.72;100.00
51369;BME280;37459;51.416;5.502;2022-11-15T08:45:59;100230.03;;;8.93;100.00
51369;BME280;37459;51.416;5.502;2022-11-15T08:48:25;100224.28;;;8.90;100.00
51369;BME280;37459;51.416;5.502;2022-11-15T08:50:53;100217.69;;;8.86;100.00
51369;BME280;37459;51.416;5.502;2022-11-15T08:53:21;100210.41;;;8.93;100.00
51369;BME280;37459;51.416;5.502;2022-11-15T08:55:48;100211.63;;;8.97;100.00
51369;BME280;37459;51.416;5.502;2022-11-15T08:58:14;100216.19;;;8.96;100.00
51369;BME280;37459;51.416;5.502;2022-11-15T09:00:41;100217.47;;;8.94;100.00
51369;BME280;37459;51.416;5.502;2022-11-15T09:03:07;100215.78;;;8.93;100.00
51369;BME280;37459;51.416;5.502;2022-11-15T09:05:36;100221.16;;;8.93;100.00
51369;BME280;37459;51.416;5.502;2022-11-15T09:08:03;100214.56;;;8.89;100.00
51369;BME280;37459;51.416;5.502;2022-11-15T09:10:31;100194.28;;;8.93;100.00
51369;BME280;37459;51.416;5.502;2022-11-15T09:12:57;100192.84;;;8.90;100.00
51369;BME280;37459;51.416;5.502;2022-11-15T09:15:24;100185.19;;;8.94;100.00
51369;BME280;37459;51.416;5.502;2022-11-15T09:17:50;100191.59;;;8.93;100.00
51369;BME280;37459;51.416;5.502;2022-11-15T09:20:17;100178.34;;;8.98;100.00
51369;BME280;37459;51.416;5.502;2022-11-15T09:22:43;100173.84;;;8.92;100.00
51369;BME280;37459;51.416;5.502;2022-11-15T09:25:10;100165.50;;;9.00;100.00
51369;BME280;37459;51.416;5.502;2022-11-15T09:27:38;100177.66;;;9.09;100.00
51369;BME280;37459;51.416;5.502;2022-11-15T09:30:05;100183.03;;;9.09;100.00
51369;BME280;37459;51.416;5.502;2022-11-15T09:32:32;100188.16;;;9.17;100.00
51369;BME280;37459;51.416;5.502;2022-11-15T09:34:58;100170.38;;;9.16;100.00
51369;BME280;37459;51.416;5.502;2022-11-15T09:37:25;100180.22;;;9.29;100.00
51369;BME280;37459;51.416;5.502;2022-11-15T09:39:51;100170.31;;;9.23;100.00
51369;BME280;37459;51.416;5.502;2022-11-15T09:42:30;100170.88;;;9.32;100.00
51369;BME280;37459;51.416;5.502;2022-11-15T09:45:13;100169.50;;;9.22;100.00
51369;BME280;37459;51.416;5.502;2022-11-15T09:48:09;100176.09;;;9.27;100.00
51369;BME280;37459;51.416;5.502;2022-11-15T09:50:43;100168.28;;;9.18;100.00
51369;BME280;37459;51.416;5.502;2022-11-15T09:53:14;100176.34;;;9.18;100.00
51369;BME280;37459;51.416;5.502;2022-11-15T09:55:48;100173.41;;;9.27;100.00
51369;BME280;37459;51.416;5.502;2022-11-15T09:58:22;100155.09;;;9.42;100.00
51369;BME280;37459;51.416;5.502;2022-11-15T10:00:53;100169.28;;;9.49;100.00
51369;BME280;37459;51.416;5.502;2022-11-15T10:03:25;100164.38;;;9.46;100.00
51369;BME280;37459;51.416;5.502;2022-11-15T10:05:55;100165.84;;;9.42;100.00
51369;BME280;37459;51.416;5.502;2022-11-15T10:08:33;100163.38;;;9.40;100.00
51369;BME280;37459;51.416;5.502;2022-11-15T10:11:03;100158.31;;;9.51;100.00
51369;BME280;37459;51.416;5.502;2022-11-15T10:13:33;100165.84;;;9.42;100.00
51369;BME280;37459;51.416;5.502;2022-11-15T10:16:09;100160.25;;;9.43;100.00
51369;BME280;37459;51.416;5.502;2022-11-15T10:18:49;100163.31;;;9.47;100.00
51369;BME280;37459;51.416;5.502;2022-11-15T10:23:48;100123.00;;;9.40;100.00
51369;BME280;37459;51.416;5.502;2022-11-15T10:26:16;100161.56;;;9.59;100.00
51369;BME280;37459;51.416;5.502;2022-11-15T10:28:43;100131.97;;;9.59;96.29
51369;BME280;37459;51.416;5.502;2022-11-15T10:31:23;100150.78;;;9.59;96.90
51369;BME280;37459;51.416;5.502;2022-11-15T10:33:51;100134.16;;;9.44;93.93
51369;BME280;37459;51.416;5.502;2022-11-15T10:36:20;100148.09;;;9.59;95.10
51369;BME280;37459;51.416;5.502;2022-11-15T10:38:56;100149.19;;;9.52;92.91
51369;BME280;37459;51.416;5.502;2022-11-15T10:41:32;100141.56;;;9.49;91.81
51369;BME280;37459;51.416;5.502;2022-11-15T10:44:17;100136.66;;;9.39;93.91
51369;BME280;37459;51.416;5.502;2022-11-15T10:46:46;100123.28;;;9.32;94.78
51369;BME280;37459;51.416;5.502;2022-11-15T10:49:17;100109.47;;;9.29;92.80
51369;BME280;37459;51.416;5.502;2022-11-15T10:51:46;100114.28;;;9.45;94.53
51369;BME280;37459;51.416;5.502;2022-11-15T10:54:19;100109.75;;;9.45;96.16
51369;BME280;37459;51.416;5.502;2022-11-15T10:56:49;100106.81;;;9.47;95.87
51369;BME280;37459;51.416;5.502;2022-11-15T10:59:22;100110.81;;;9.63;95.91
51369;BME280;37459;51.416;5.502;2022-11-15T11:01:51;100100.88;;;9.63;93.39
51369;BME280;37459;51.416;5.502;2022-11-15T11:04:17;100103.72;;;9.69;92.66
51369;BME280;37459;51.416;5.502;2022-11-15T11:06:49;100100.75;;;9.77;93.63
51369;BME280;37459;51.416;5.502;2022-11-15T11:09:30;100097.75;;;9.85;92.68
51369;BME280;37459;51.416;5.502;2022-11-15T11:11:58;100094.22;;;9.84;91.39
51369;BME280;37459;51.416;5.502;2022-11-15T11:14:26;100085.34;;;9.84;92.74
51369;BME280;37459;51.416;5.502;2022-11-15T11:17:01;100073.66;;;9.90;93.51
51369;BME280;37459;51.416;5.502;2022-11-15T11:19:35;100073.06;;;9.88;93.46
51369;BME280;37459;51.416;5.502;2022-11-15T11:22:11;100068.66;;;9.94;93.16
51369;BME280;37459;51.416;5.502;2022-11-15T11:24:44;100057.53;;;9.90;92.96
51369;BME280;37459;51.416;5.502;2022-11-15T11:27:21;100054.91;;;10.02;94.08
51369;BME280;37459;51.416;5.502;2022-11-15T11:30:02;100048.69;;;10.01;91.58
51369;BME280;37459;51.416;5.502;2022-11-15T11:32:49;100042.53;;;10.13;90.04
51369;BME280;37459;51.416;5.502;2022-11-15T11:35:20;100027.31;;;10.06;90.30
51369;BME280;37459;51.416;5.502;2022-11-15T11:37:50;100038.22;;;10.12;89.85
51369;BME280;37459;51.416;5.502;2022-11-15T11:40:27;100013.00;;;10.06;92.63
51369;BME280;37459;51.416;5.502;2022-11-15T11:42:58;100026.53;;;10.18;91.90
51369;BME280;37459;51.416;5.502;2022-11-15T11:45:44;100011.56;;;10.22;90.76
51369;BME280;37459;51.416;5.502;2022-11-15T11:48:23;100021.13;;;10.36;89.98
51369;BME280;37459;51.416;5.502;2022-11-15T11:51:02;100005.56;;;10.38;89.48
51369;BME280;37459;51.416;5.502;2022-11-15T11:53:37;100001.06;;;10.32;88.64
51369;BME280;37459;51.416;5.502;2022-11-15T11:56:12;99993.66;;;10.27;89.20
51369;BME280;37459;51.416;5.502;2022-11-15T11:58:43;99989.75;;;10.23;90.71
51369;BME280;37459;51.416;5.502;2022-11-15T12:01:16;99996.44;;;10.39;90.83
51369;BME280;37459;51.416;5.502;2022-11-15T12:03:47;99992.94;;;10.39;89.58
51369;BME280;37459;51.416;5.502;2022-11-15T12:06:22;99981.31;;;10.38;88.95
51369;BME280;37459;51.416;5.502;2022-11-15T12:08:56;99978.19;;;10.53;87.20
51369;BME280;37459;51.416;5.502;2022-11-15T12:11:30;99964.44;;;10.43;88.17
51369;BME280;37459;51.416;5.502;2022-11-15T12:14:05;99969.94;;;10.36;88.14
51369;BME280;37459;51.416;5.502;2022-11-15T12:16:36;99965.59;;;10.35;89.03
51369;BME280;37459;51.416;5.502;2022-11-15T12:19:07;99965.72;;;10.40;87.75
51369;BME280;37459;51.416;5.502;2022-11-15T12:21:39;99962.34;;;10.45;88.10
51369;BME280;37459;51.416;5.502;2022-11-15T12:24:14;99959.34;;;10.65;85.73
51369;BME280;37459;51.416;5.502;2022-11-15T12:26:48;99946.09;;;10.63;84.25
51369;BME280;37459;51.416;5.502;2022-11-15T12:29:20;99951.28;;;10.65;83.92
51369;BME280;37459;51.416;5.502;2022-11-15T12:31:52;99941.16;;;10.60;82.21
51369;BME280;37459;51.416;5.502;2022-11-15T12:34:39;99931.56;;;10.53;81.53
51369;BME280;37459;51.416;5.502;2022-11-15T12:40:25;99933.28;;;10.47;83.45
51369;BME280;37459;51.416;5.502;2022-11-15T12:43:01;99924.88;;;10.43;82.25
51369;BME280;37459;51.416;5.502;2022-11-15T12:45:30;99928.50;;;10.37;82.22
51369;BME280;37459;51.416;5.502;2022-11-15T12:48:47;99914.56;;;10.52;81.01
51369;BME280;37459;51.416;5.502;2022-11-15T12:51:16;99910.81;;;10.41;82.95
51369;BME280;37459;51.416;5.502;2022-11-15T12:53:43;99903.53;;;10.42;83.27
51369;BME280;37459;51.416;5.502;2022-11-15T12:56:20;99892.94;;;10.28;84.42
51369;BME280;37459;51.416;5.502;2022-11-15T12:58:48;99897.44;;;10.35;84.77
51369;BME280;37459;51.416;5.502;2022-11-15T13:01:55;99897.09;;;10.43;83.00
51369;BME280;37459;51.416;5.502;2022-11-15T13:04:25;99882.22;;;10.40;82.99
51369;BME280;37459;51.416;5.502;2022-11-15T13:06:55;99880.59;;;10.39;82.59
51369;BME280;37459;51.416;5.502;2022-11-15T13:09:51;99870.72;;;10.33;85.08
51369;BME280;37459;51.416;5.502;2022-11-15T13:12:48;99869.91;;;10.33;87.38
51369;BME280;37459;51.416;5.502;2022-11-15T13:15:52;99860.31;;;10.37;87.78
51369;BME280;37459;51.416;5.502;2022-11-15T13:18:35;99864.53;;;10.33;88.05